sensor_id;sensor_type;location;lat;lon;timestamp;P1;durP1;ratioP1;P2;durP2;ratioP2
76867;SDS011;66168;45.478;11.060;2023-02-24T00:01:46;53.30;;;27.20;;
76867;SDS011;66168;45.478;11.060;2023-02-24T00:04:18;48.00;;;23.80;;
76867;SDS011;66168;45.478;11.060;2023-02-24T00:06:46;58.40;;;26.90;;
76867;SDS011;66168;45.478;11.060;2023-02-24T00:09:21;66.90;;;31.60;;
76867;SDS011;66168;45.478;11.060;2023-02-24T00:11:55;64.40;;;29.50;;
76867;SDS011;66168;45.478;11.060;2023-02-24T00:14:26;61.90;;;29.60;;
76867;SDS011;66168;45.478;11.060;2023-02-24T00:16:54;61.70;;;30.00;;
76867;SDS011;66168;45.478;11.060;2023-02-24T00:19:22;55.10;;;29.00;;
76867;SDS011;66168;45.478;11.060;2023-02-24T00:21:51;65.10;;;33.20;;
76867;SDS011;66168;45.478;11.060;2023-02-24T00:24:20;55.70;;;26.80;;
76867;SDS011;66168;45.478;11.060;2023-02-24T00:26:51;58.20;;;27.60;;
76867;SDS011;66168;45.478;11.060;2023-02-24T00:29:21;56.00;;;26.20;;
76867;SDS011;66168;45.478;11.060;2023-02-24T00:31:51;54.60;;;25.60;;
76867;SDS011;66168;45.478;11.060;2023-02-24T00:34:26;51.50;;;23.30;;
76867;SDS011;66168;45.478;11.060;2023-02-24T00:36:57;49.70;;;25.20;;
76867;SDS011;66168;45.478;11.060;2023-02-24T00:39:25;53.70;;;24.10;;
76867;SDS011;66168;45.478;11.060;2023-02-24T00:41:56;53.00;;;24.70;;
76867;SDS011;66168;45.478;11.060;2023-02-24T00:44:31;48.10;;;22.70;;
76867;SDS011;66168;45.478;11.060;2023-02-24T00:47:03;54.10;;;25.80;;
76867;SDS011;66168;45.478;11.060;2023-02-24T00:49:32;49.50;;;24.00;;
76867;SDS011;66168;45.478;11.060;2023-02-24T00:52:02;46.80;;;23.60;;
76867;SDS011;66168;45.478;11.060;2023-02-24T00:54:36;41.50;;;21.70;;
76867;SDS011;66168;45.478;11.060;2023-02-24T00:57:03;50.50;;;23.30;;
76867;SDS011;66168;45.478;11.060;2023-02-24T00:59:30;47.60;;;23.50;;
76867;SDS011;66168;45.478;11.060;2023-02-24T01:01:57;51.00;;;23.70;;
76867;SDS011;66168;45.478;11.060;2023-02-24T01:04:24;47.00;;;22.70;;
76867;SDS011;66168;45.478;11.060;2023-02-24T01:06:52;42.90;;;22.00;;
76867;SDS011;66168;45.478;11.060;2023-02-24T01:09:27;46.30;;;22.90;;
76867;SDS011;66168;45.478;11.060;2023-02-24T01:11:55;45.70;;;22.80;;
76867;SDS011;66168;45.478;11.060;2023-02-24T01:14:43;44.40;;;20.30;;
76867;SDS011;66168;45.478;11.060;2023-02-24T01:17:15;49.20;;;23.60;;
76867;SDS011;66168;45.478;11.060;2023-02-24T01:19:44;47.90;;;22.40;;
76867;SDS011;66168;45.478;11.060;2023-02-24T01:22:13;54.40;;;23.90;;
76867;SDS011;66168;45.478;11.060;2023-02-24T01:24:41;47.60;;;23.50;;
76867;SDS011;66168;45.478;11.060;2023-02-24T01:27:09;42.60;;;21.30;;
76867;SDS011;66168;45.478;11.060;2023-02-24T01:29:39;48.30;;;23.10;;
76867;SDS011;66168;45.478;11.060;2023-02-24T01:32:14;38.40;;;20.00;;
76867;SDS011;66168;45.478;11.060;2023-02-24T01:34:43;36.10;;;18.60;;
76867;SDS011;66168;45.478;11.060;2023-02-24T01:37:10;38.30;;;19.10;;
76867;SDS011;66168;45.478;11.060;2023-02-24T01:39:44;40.60;;;18.90;;
76867;SDS011;66168;45.478;11.060;2023-02-24T01:42:17;46.40;;;22.40;;
76867;SDS011;66168;45.478;11.060;2023-02-24T01:47:12;45.70;;;22.90;;
76867;SDS011;66168;45.478;11.060;2023-02-24T01:49:46;53.40;;;26.40;;
76867;SDS011;66168;45.478;11.060;2023-02-24T01:52:18;43.00;;;22.30;;
76867;SDS011;66168;45.478;11.060;2023-02-24T01:54:56;43.60;;;22.20;;
76867;SDS011;66168;45.478;11.060;2023-02-24T01:57:27;55.20;;;25.50;;
76867;SDS011;66168;45.478;11.060;2023-02-24T01:59:56;57.20;;;26.90;;
76867;SDS011;66168;45.478;11.060;2023-02-24T02:02:40;46.70;;;24.20;;
76867;SDS011;66168;45.478;11.060;2023-02-24T02:05:10;51.50;;;25.10;;
76867;SDS011;66168;45.478;11.060;2023-02-24T02:07:37;51.40;;;23.50;;
76867;SDS011;66168;45.478;11.060;2023-02-24T02:10:08;50.50;;;24.40;;
76867;SDS011;66168;45.478;11.060;2023-02-24T02:12:37;57.70;;;26.10;;
76867;SDS011;66168;45.478;11.060;2023-02-24T02:15:13;52.30;;;25.60;;
76867;SDS011;66168;45.478;11.060;2023-02-24T02:20:34;56.80;;;26.50;;
76867;SDS011;66168;45.478;11.060;2023-02-24T02:32:05;51.00;;;23.40;;
76867;SDS011;66168;45.478;11.060;2023-02-24T02:34:46;56.80;;;24.20;;
76867;SDS011;66168;45.478;11.060;2023-02-24T02:37:30;48.10;;;22.60;;
76867;SDS011;66168;45.478;11.060;2023-02-24T02:40:17;51.70;;;24.40;;
76867;SDS011;66168;45.478;11.060;2023-02-24T02:48:06;49.10;;;23.50;;
76867;SDS011;66168;45.478;11.060;2023-02-24T02:50:44;52.80;;;23.30;;
76867;SDS011;66168;45.478;11.060;2023-02-24T02:53:24;52.60;;;25.50;;
76867;SDS011;66168;45.478;11.060;2023-02-24T02:55:58;48.60;;;21.90;;
76867;SDS011;66168;45.478;11.060;2023-02-24T02:58:29;49.50;;;22.30;;
76867;SDS011;66168;45.478;11.060;2023-02-24T03:01:01;48.10;;;22.90;;
76867;SDS011;66168;45.478;11.060;2023-02-24T03:03:33;44.90;;;22.60;;
76867;SDS011;66168;45.478;11.060;2023-02-24T03:06:06;54.60;;;25.10;;
76867;SDS011;66168;45.478;11.060;2023-02-24T03:08:56;61.70;;;27.50;;
76867;SDS011;66168;45.478;11.060;2023-02-24T03:11:26;53.00;;;24.80;;
76867;SDS011;66168;45.478;11.060;2023-02-24T03:13:55;54.70;;;25.40;;
76867;SDS011;66168;45.478;11.060;2023-02-24T03:16:24;55.50;;;26.50;;
76867;SDS011;66168;45.478;11.060;2023-02-24T03:18:54;47.70;;;24.80;;
76867;SDS011;66168;45.478;11.060;2023-02-24T03:24:02;53.10;;;25.00;;
76867;SDS011;66168;45.478;11.060;2023-02-24T03:26:42;49.80;;;23.20;;
76867;SDS011;66168;45.478;11.060;2023-02-24T03:37:42;56.60;;;26.90;;
76867;SDS011;66168;45.478;11.060;2023-02-24T03:40:10;53.60;;;26.80;;
76867;SDS011;66168;45.478;11.060;2023-02-24T03:42:43;52.40;;;23.80;;
76867;SDS011;66168;45.478;11.060;2023-02-24T03:45:13;49.50;;;24.20;;
76867;SDS011;66168;45.478;11.060;2023-02-24T03:47:41;45.70;;;22.20;;
76867;SDS011;66168;45.478;11.060;2023-02-24T03:50:12;43.50;;;22.80;;
76867;SDS011;66168;45.478;11.060;2023-02-24T03:52:54;45.00;;;23.10;;
76867;SDS011;66168;45.478;11.060;2023-02-24T04:09:49;52.70;;;25.40;;
76867;SDS011;66168;45.478;11.060;2023-02-24T04:12:17;50.10;;;23.70;;
76867;SDS011;66168;45.478;11.060;2023-02-24T04:17:43;47.40;;;22.80;;
76867;SDS011;66168;45.478;11.060;2023-02-24T04:20:17;49.90;;;22.80;;
76867;SDS011;66168;45.478;11.060;2023-02-24T04:25:30;46.70;;;21.10;;
76867;SDS011;66168;45.478;11.060;2023-02-24T04:27:58;42.10;;;21.40;;
76867;SDS011;66168;45.478;11.060;2023-02-24T04:30:29;45.70;;;22.50;;
76867;SDS011;66168;45.478;11.060;2023-02-24T04:33:00;49.10;;;24.70;;
76867;SDS011;66168;45.478;11.060;2023-02-24T04:35:27;60.20;;;27.20;;
76867;SDS011;66168;45.478;11.060;2023-02-24T04:37:54;55.30;;;27.20;;
76867;SDS011;66168;45.478;11.060;2023-02-24T04:40:22;57.50;;;27.50;;
76867;SDS011;66168;45.478;11.060;2023-02-24T04:42:49;57.80;;;27.60;;
76867;SDS011;66168;45.478;11.060;2023-02-24T04:45:19;51.90;;;24.60;;
76867;SDS011;66168;45.478;11.060;2023-02-24T04:47:55;51.60;;;24.70;;
76867;SDS011;66168;45.478;11.060;2023-02-24T04:50:27;43.60;;;21.80;;
76867;SDS011;66168;45.478;11.060;2023-02-24T04:52:57;45.50;;;22.20;;
76867;SDS011;66168;45.478;11.060;2023-02-24T04:55:27;47.90;;;23.10;;
76867;SDS011;66168;45.478;11.060;2023-02-24T04:57:58;48.00;;;23.00;;
76867;SDS011;66168;45.478;11.060;2023-02-24T05:00:26;48.50;;;25.50;;
76867;SDS011;66168;45.478;11.060;2023-02-24T05:03:04;53.80;;;25.60;;
76867;SDS011;66168;45.478;11.060;2023-02-24T05:05:31;55.40;;;27.10;;
76867;SDS011;66168;45.478;11.060;2023-02-24T05:08:05;59.50;;;27.30;;
76867;SDS011;66168;45.478;11.060;2023-02-24T05:10:35;53.70;;;25.40;;
76867;SDS011;66168;45.478;11.060;2023-02-24T05:13:05;51.00;;;24.20;;
76867;SDS011;66168;45.478;11.060;2023-02-24T05:15:32;53.90;;;24.20;;
76867;SDS011;66168;45.478;11.060;2023-02-24T05:18:00;49.90;;;25.30;;
76867;SDS011;66168;45.478;11.060;2023-02-24T05:20:36;54.80;;;25.30;;
76867;SDS011;66168;45.478;11.060;2023-02-24T05:23:40;58.50;;;28.50;;
76867;SDS011;66168;45.478;11.060;2023-02-24T05:26:15;58.80;;;26.90;;
76867;SDS011;66168;45.478;11.060;2023-02-24T05:28:44;62.90;;;30.00;;
76867;SDS011;66168;45.478;11.060;2023-02-24T05:31:15;70.80;;;33.20;;
76867;SDS011;66168;45.478;11.060;2023-02-24T05:33:46;67.60;;;31.20;;
76867;SDS011;66168;45.478;11.060;2023-02-24T05:36:16;53.60;;;25.90;;
76867;SDS011;66168;45.478;11.060;2023-02-24T05:38:47;59.80;;;28.20;;
76867;SDS011;66168;45.478;11.060;2023-02-24T05:41:22;57.60;;;25.30;;
76867;SDS011;66168;45.478;11.060;2023-02-24T05:43:58;55.10;;;24.80;;
76867;SDS011;66168;45.478;11.060;2023-02-24T05:46:28;51.80;;;23.30;;
76867;SDS011;66168;45.478;11.060;2023-02-24T05:49:05;53.00;;;26.40;;
76867;SDS011;66168;45.478;11.060;2023-02-24T05:51:37;53.20;;;25.30;;
76867;SDS011;66168;45.478;11.060;2023-02-24T05:54:05;62.50;;;26.70;;
76867;SDS011;66168;45.478;11.060;2023-02-24T05:56:37;49.70;;;23.60;;
76867;SDS011;66168;45.478;11.060;2023-02-24T05:59:07;59.90;;;27.60;;
76867;SDS011;66168;45.478;11.060;2023-02-24T06:01:37;56.00;;;26.10;;
76867;SDS011;66168;45.478;11.060;2023-02-24T06:04:08;49.00;;;23.70;;
76867;SDS011;66168;45.478;11.060;2023-02-24T06:06:36;46.40;;;22.40;;
76867;SDS011;66168;45.478;11.060;2023-02-24T06:09:05;50.70;;;24.50;;
76867;SDS011;66168;45.478;11.060;2023-02-24T06:11:37;43.80;;;21.10;;
76867;SDS011;66168;45.478;11.060;2023-02-24T06:14:06;44.00;;;20.10;;
76867;SDS011;66168;45.478;11.060;2023-02-24T06:16:36;46.70;;;22.20;;
76867;SDS011;66168;45.478;11.060;2023-02-24T06:19:09;47.20;;;22.60;;
76867;SDS011;66168;45.478;11.060;2023-02-24T06:21:38;51.50;;;23.20;;
76867;SDS011;66168;45.478;11.060;2023-02-24T06:24:10;43.30;;;22.40;;
76867;SDS011;66168;45.478;11.060;2023-02-24T06:26:40;50.40;;;23.60;;
76867;SDS011;66168;45.478;11.060;2023-02-24T06:29:12;45.90;;;20.60;;
76867;SDS011;66168;45.478;11.060;2023-02-24T06:31:40;46.30;;;22.90;;
76867;SDS011;66168;45.478;11.060;2023-02-24T06:34:09;48.30;;;23.90;;
76867;SDS011;66168;45.478;11.060;2023-02-24T06:36:36;47.10;;;22.80;;
76867;SDS011;66168;45.478;11.060;2023-02-24T06:39:04;48.70;;;23.30;;
76867;SDS011;66168;45.478;11.060;2023-02-24T06:41:34;42.50;;;19.90;;
76867;SDS011;66168;45.478;11.060;2023-02-24T06:44:03;48.90;;;23.90;;
76867;SDS011;66168;45.478;11.060;2023-02-24T06:46:30;53.40;;;26.90;;
76867;SDS011;66168;45.478;11.060;2023-02-24T06:48:57;60.60;;;25.90;;
76867;SDS011;66168;45.478;11.060;2023-02-24T06:51:24;50.00;;;25.00;;
76867;SDS011;66168;45.478;11.060;2023-02-24T06:53:56;56.10;;;26.00;;
76867;SDS011;66168;45.478;11.060;2023-02-24T06:56:25;50.60;;;27.80;;
76867;SDS011;66168;45.478;11.060;2023-02-24T06:58:53;55.60;;;27.00;;
76867;SDS011;66168;45.478;11.060;2023-02-24T07:01:23;54.60;;;26.70;;
76867;SDS011;66168;45.478;11.060;2023-02-24T07:03:52;49.60;;;24.90;;
76867;SDS011;66168;45.478;11.060;2023-02-24T07:06:35;56.90;;;26.30;;
76867;SDS011;66168;45.478;11.060;2023-02-24T07:09:04;52.60;;;26.40;;
76867;SDS011;66168;45.478;11.060;2023-02-24T07:11:34;56.30;;;27.60;;
76867;SDS011;66168;45.478;11.060;2023-02-24T07:14:02;57.40;;;29.50;;
76867;SDS011;66168;45.478;11.060;2023-02-24T07:16:48;57.20;;;27.80;;
76867;SDS011;66168;45.478;11.060;2023-02-24T07:19:21;54.70;;;27.60;;
76867;SDS011;66168;45.478;11.060;2023-02-24T07:21:50;55.40;;;26.60;;
76867;SDS011;66168;45.478;11.060;2023-02-24T07:24:25;58.80;;;26.80;;
76867;SDS011;66168;45.478;11.060;2023-02-24T07:26:59;54.90;;;25.40;;
76867;SDS011;66168;45.478;11.060;2023-02-24T07:29:28;57.40;;;26.00;;
76867;SDS011;66168;45.478;11.060;2023-02-24T07:31:59;52.60;;;25.50;;
76867;SDS011;66168;45.478;11.060;2023-02-24T07:34:29;45.30;;;23.50;;
76867;SDS011;66168;45.478;11.060;2023-02-24T07:36:57;48.60;;;24.60;;
76867;SDS011;66168;45.478;11.060;2023-02-24T07:39:24;45.90;;;23.30;;
76867;SDS011;66168;45.478;11.060;2023-02-24T07:41:51;58.90;;;28.30;;
76867;SDS011;66168;45.478;11.060;2023-02-24T07:44:24;57.20;;;28.60;;
76867;SDS011;66168;45.478;11.060;2023-02-24T07:46:51;52.90;;;25.60;;
76867;SDS011;66168;45.478;11.060;2023-02-24T07:49:20;41.70;;;20.20;;
76867;SDS011;66168;45.478;11.060;2023-02-24T07:51:52;51.20;;;24.10;;
76867;SDS011;66168;45.478;11.060;2023-02-24T07:54:24;54.30;;;26.50;;
76867;SDS011;66168;45.478;11.060;2023-02-24T07:56:56;53.30;;;25.10;;
76867;SDS011;66168;45.478;11.060;2023-02-24T07:59:29;51.00;;;23.90;;
76867;SDS011;66168;45.478;11.060;2023-02-24T08:02:00;58.80;;;29.00;;
76867;SDS011;66168;45.478;11.060;2023-02-24T08:04:30;51.40;;;25.80;;
76867;SDS011;66168;45.478;11.060;2023-02-24T08:07:05;58.00;;;28.40;;
76867;SDS011;66168;45.478;11.060;2023-02-24T08:09:39;58.10;;;27.20;;
76867;SDS011;66168;45.478;11.060;2023-02-24T08:12:27;61.60;;;29.30;;
76867;SDS011;66168;45.478;11.060;2023-02-24T08:14:55;59.50;;;29.50;;
76867;SDS011;66168;45.478;11.060;2023-02-24T08:17:25;52.60;;;27.80;;
76867;SDS011;66168;45.478;11.060;2023-02-24T08:19:53;52.70;;;26.70;;
76867;SDS011;66168;45.478;11.060;2023-02-24T08:22:41;54.00;;;27.40;;
76867;SDS011;66168;45.478;11.060;2023-02-24T08:25:12;52.60;;;26.30;;
76867;SDS011;66168;45.478;11.060;2023-02-24T08:27:45;49.20;;;26.70;;
76867;SDS011;66168;45.478;11.060;2023-02-24T08:30:33;61.60;;;29.60;;
76867;SDS011;66168;45.478;11.060;2023-02-24T08:33:05;67.60;;;32.30;;
76867;SDS011;66168;45.478;11.060;2023-02-24T08:35:36;65.10;;;31.30;;
76867;SDS011;66168;45.478;11.060;2023-02-24T08:38:08;60.40;;;30.50;;
76867;SDS011;66168;45.478;11.060;2023-02-24T08:40:50;58.20;;;29.00;;
76867;SDS011;66168;45.478;11.060;2023-02-24T08:43:27;45.20;;;22.90;;
76867;SDS011;66168;45.478;11.060;2023-02-24T08:45:57;53.00;;;24.00;;
76867;SDS011;66168;45.478;11.060;2023-02-24T08:48:27;54.80;;;28.40;;
76867;SDS011;66168;45.478;11.060;2023-02-24T08:53:32;53.10;;;24.80;;
76867;SDS011;66168;45.478;11.060;2023-02-24T08:56:00;59.80;;;27.80;;
76867;SDS011;66168;45.478;11.060;2023-02-24T08:58:35;64.50;;;32.40;;
76867;SDS011;66168;45.478;11.060;2023-02-24T09:01:22;53.90;;;27.10;;
76867;SDS011;66168;45.478;11.060;2023-02-24T09:03:53;60.30;;;28.90;;
76867;SDS011;66168;45.478;11.060;2023-02-24T09:09:36;76.10;;;35.10;;
76867;SDS011;66168;45.478;11.060;2023-02-24T09:12:08;76.30;;;35.10;;
76867;SDS011;66168;45.478;11.060;2023-02-24T09:14:48;61.70;;;30.30;;
76867;SDS011;66168;45.478;11.060;2023-02-24T09:17:15;58.40;;;30.90;;
76867;SDS011;66168;45.478;11.060;2023-02-24T09:19:46;45.00;;;21.90;;
76867;SDS011;66168;45.478;11.060;2023-02-24T09:22:25;54.80;;;27.40;;
76867;SDS011;66168;45.478;11.060;2023-02-24T09:24:59;52.50;;;25.40;;
76867;SDS011;66168;45.478;11.060;2023-02-24T09:28:07;46.40;;;22.90;;
76867;SDS011;66168;45.478;11.060;2023-02-24T09:30:44;48.40;;;22.10;;
76867;SDS011;66168;45.478;11.060;2023-02-24T09:33:20;47.20;;;21.50;;
76867;SDS011;66168;45.478;11.060;2023-02-24T09:44:23;53.00;;;26.90;;
76867;SDS011;66168;45.478;11.060;2023-02-24T09:46:55;67.90;;;32.30;;
76867;SDS011;66168;45.478;11.060;2023-02-24T09:49:27;72.80;;;32.50;;
76867;SDS011;66168;45.478;11.060;2023-02-24T09:52:12;62.50;;;31.70;;
76867;SDS011;66168;45.478;11.060;2023-02-24T09:54:44;57.80;;;27.60;;
76867;SDS011;66168;45.478;11.060;2023-02-24T09:57:35;57.40;;;24.50;;
76867;SDS011;66168;45.478;11.060;2023-02-24T10:00:35;46.10;;;21.90;;
76867;SDS011;66168;45.478;11.060;2023-02-24T10:03:13;57.00;;;27.40;;
76867;SDS011;66168;45.478;11.060;2023-02-24T10:05:57;58.50;;;28.80;;
76867;SDS011;66168;45.478;11.060;2023-02-24T10:08:39;53.90;;;26.10;;
76867;SDS011;66168;45.478;11.060;2023-02-24T10:11:15;62.60;;;29.40;;
76867;SDS011;66168;45.478;11.060;2023-02-24T10:14:02;56.70;;;28.70;;
76867;SDS011;66168;45.478;11.060;2023-02-24T10:16:36;54.60;;;27.40;;
76867;SDS011;66168;45.478;11.060;2023-02-24T10:19:22;67.90;;;33.50;;
76867;SDS011;66168;45.478;11.060;2023-02-24T10:21:56;49.70;;;24.10;;
76867;SDS011;66168;45.478;11.060;2023-02-24T10:24:49;54.00;;;27.30;;
76867;SDS011;66168;45.478;11.060;2023-02-24T10:27:35;75.00;;;35.20;;
76867;SDS011;66168;45.478;11.060;2023-02-24T10:33:26;63.50;;;30.50;;
76867;SDS011;66168;45.478;11.060;2023-02-24T10:36:03;78.90;;;37.50;;
76867;SDS011;66168;45.478;11.060;2023-02-24T10:38:35;68.20;;;33.50;;
76867;SDS011;66168;45.478;11.060;2023-02-24T10:41:03;75.60;;;35.50;;
76867;SDS011;66168;45.478;11.060;2023-02-24T10:43:32;71.20;;;35.00;;
76867;SDS011;66168;45.478;11.060;2023-02-24T10:46:21;59.80;;;28.80;;
76867;SDS011;66168;45.478;11.060;2023-02-24T10:49:08;54.60;;;27.30;;
76867;SDS011;66168;45.478;11.060;2023-02-24T10:51:43;72.90;;;34.20;;
76867;SDS011;66168;45.478;11.060;2023-02-24T10:54:22;63.40;;;31.20;;
76867;SDS011;66168;45.478;11.060;2023-02-24T10:57:03;72.60;;;35.60;;
76867;SDS011;66168;45.478;11.060;2023-02-24T10:59:45;67.30;;;34.50;;
76867;SDS011;66168;45.478;11.060;2023-02-24T11:02:27;74.30;;;37.60;;
76867;SDS011;66168;45.478;11.060;2023-02-24T11:05:11;54.30;;;27.10;;
76867;SDS011;66168;45.478;11.060;2023-02-24T11:08:16;48.10;;;23.60;;
76867;SDS011;66168;45.478;11.060;2023-02-24T11:11:07;54.50;;;30.00;;
76867;SDS011;66168;45.478;11.060;2023-02-24T11:13:47;51.10;;;23.50;;
76867;SDS011;66168;45.478;11.060;2023-02-24T11:16:41;57.30;;;28.10;;
76867;SDS011;66168;45.478;11.060;2023-02-24T11:19:35;52.60;;;24.20;;
76867;SDS011;66168;45.478;11.060;2023-02-24T11:22:34;64.90;;;33.00;;
76867;SDS011;66168;45.478;11.060;2023-02-24T11:25:11;50.00;;;24.00;;
76867;SDS011;66168;45.478;11.060;2023-02-24T11:27:45;68.60;;;34.60;;
76867;SDS011;66168;45.478;11.060;2023-02-24T11:30:18;61.90;;;28.70;;
76867;SDS011;66168;45.478;11.060;2023-02-24T11:33:14;70.20;;;34.30;;
76867;SDS011;66168;45.478;11.060;2023-02-24T11:36:03;56.70;;;28.40;;
76867;SDS011;66168;45.478;11.060;2023-02-24T11:39:06;48.90;;;22.60;;
76867;SDS011;66168;45.478;11.060;2023-02-24T11:41:48;56.40;;;27.40;;
76867;SDS011;66168;45.478;11.060;2023-02-24T11:46:58;57.80;;;27.60;;
76867;SDS011;66168;45.478;11.060;2023-02-24T11:52:35;52.20;;;24.00;;
76867;SDS011;66168;45.478;11.060;2023-02-24T11:55:12;76.60;;;37.70;;
76867;SDS011;66168;45.478;11.060;2023-02-24T11:57:49;68.00;;;34.00;;
76867;SDS011;66168;45.478;11.060;2023-02-24T12:00:20;65.10;;;33.20;;
76867;SDS011;66168;45.478;11.060;2023-02-24T12:02:50;56.10;;;27.40;;
76867;SDS011;66168;45.478;11.060;2023-02-24T12:05:26;61.70;;;27.50;;
76867;SDS011;66168;45.478;11.060;2023-02-24T12:08:04;56.90;;;30.10;;
76867;SDS011;66168;45.478;11.060;2023-02-24T12:10:52;40.10;;;20.60;;
76867;SDS011;66168;45.478;11.060;2023-02-24T12:16:02;62.50;;;29.30;;
76867;SDS011;66168;45.478;11.060;2023-02-24T12:18:36;52.30;;;23.50;;
76867;SDS011;66168;45.478;11.060;2023-02-24T12:21:07;48.20;;;23.10;;
76867;SDS011;66168;45.478;11.060;2023-02-24T12:23:41;51.50;;;24.60;;
76867;SDS011;66168;45.478;11.060;2023-02-24T12:29:13;52.90;;;26.00;;
76867;SDS011;66168;45.478;11.060;2023-02-24T12:37:28;62.90;;;31.10;;
76867;SDS011;66168;45.478;11.060;2023-02-24T12:43:34;64.50;;;31.80;;
76867;SDS011;66168;45.478;11.060;2023-02-24T12:51:46;60.10;;;31.50;;
76867;SDS011;66168;45.478;11.060;2023-02-24T12:54:53;71.40;;;34.10;;
76867;SDS011;66168;45.478;11.060;2023-02-24T13:01:04;60.40;;;31.00;;
76867;SDS011;66168;45.478;11.060;2023-02-24T13:03:26;54.70;;;29.60;;
76867;SDS011;66168;45.478;11.060;2023-02-24T13:11:38;60.60;;;30.60;;
76867;SDS011;66168;45.478;11.060;2023-02-24T13:14:30;62.70;;;30.60;;
76867;SDS011;66168;45.478;11.060;2023-02-24T13:19:39;61.20;;;33.20;;
76867;SDS011;66168;45.478;11.060;2023-02-24T13:22:29;66.10;;;33.70;;
76867;SDS011;66168;45.478;11.060;2023-02-24T13:24:58;56.60;;;30.90;;
76867;SDS011;66168;45.478;11.060;2023-02-24T13:27:42;36.30;;;18.80;;
76867;SDS011;66168;45.478;11.060;2023-02-24T13:32:45;59.20;;;30.60;;
76867;SDS011;66168;45.478;11.060;2023-02-24T13:37:50;60.90;;;32.50;;
76867;SDS011;66168;45.478;11.060;2023-02-24T13:40:19;57.40;;;29.00;;
76867;SDS011;66168;45.478;11.060;2023-02-24T13:45:29;58.50;;;30.70;;
76867;SDS011;66168;45.478;11.060;2023-02-24T13:50:57;56.00;;;30.00;;
76867;SDS011;66168;45.478;11.060;2023-02-24T13:56:35;49.10;;;26.70;;
76867;SDS011;66168;45.478;11.060;2023-02-24T14:02:14;48.30;;;25.70;;
76867;SDS011;66168;45.478;11.060;2023-02-24T14:07:24;61.90;;;28.90;;
76867;SDS011;66168;45.478;11.060;2023-02-24T14:10:03;46.70;;;23.30;;
76867;SDS011;66168;45.478;11.060;2023-02-24T14:12:40;48.60;;;24.90;;
76867;SDS011;66168;45.478;11.060;2023-02-24T14:15:11;44.70;;;22.50;;
76867;SDS011;66168;45.478;11.060;2023-02-24T14:17:41;45.00;;;23.80;;
76867;SDS011;66168;45.478;11.060;2023-02-24T14:22:41;48.10;;;24.60;;
76867;SDS011;66168;45.478;11.060;2023-02-24T14:25:09;56.70;;;30.20;;
76867;SDS011;66168;45.478;11.060;2023-02-24T14:27:37;54.10;;;26.80;;
76867;SDS011;66168;45.478;11.060;2023-02-24T14:30:05;64.00;;;31.70;;
76867;SDS011;66168;45.478;11.060;2023-02-24T14:32:33;55.10;;;30.50;;
76867;SDS011;66168;45.478;11.060;2023-02-24T14:35:00;45.90;;;23.80;;
76867;SDS011;66168;45.478;11.060;2023-02-24T14:37:28;41.60;;;21.70;;
76867;SDS011;66168;45.478;11.060;2023-02-24T14:39:57;50.80;;;26.10;;
76867;SDS011;66168;45.478;11.060;2023-02-24T14:42:26;48.90;;;24.80;;
76867;SDS011;66168;45.478;11.060;2023-02-24T14:44:55;46.60;;;23.00;;
76867;SDS011;66168;45.478;11.060;2023-02-24T14:47:25;40.10;;;21.80;;
76867;SDS011;66168;45.478;11.060;2023-02-24T14:58:00;46.80;;;24.50;;
76867;SDS011;66168;45.478;11.060;2023-02-24T15:03:32;45.00;;;25.10;;
76867;SDS011;66168;45.478;11.060;2023-02-24T15:06:06;33.00;;;18.10;;
76867;SDS011;66168;45.478;11.060;2023-02-24T15:08:47;34.60;;;19.10;;
76867;SDS011;66168;45.478;11.060;2023-02-24T15:11:19;40.70;;;22.20;;
76867;SDS011;66168;45.478;11.060;2023-02-24T15:13:49;36.30;;;17.80;;
76867;SDS011;66168;45.478;11.060;2023-02-24T15:19:02;43.60;;;22.00;;
76867;SDS011;66168;45.478;11.060;2023-02-24T15:21:30;42.00;;;23.60;;
76867;SDS011;66168;45.478;11.060;2023-02-24T15:24:18;44.00;;;21.50;;
76867;SDS011;66168;45.478;11.060;2023-02-24T15:26:51;36.60;;;20.30;;
76867;SDS011;66168;45.478;11.060;2023-02-24T15:29:22;32.50;;;19.10;;
76867;SDS011;66168;45.478;11.060;2023-02-24T15:31:52;46.90;;;25.80;;
76867;SDS011;66168;45.478;11.060;2023-02-24T15:34:29;47.00;;;24.60;;
76867;SDS011;66168;45.478;11.060;2023-02-24T15:36:58;49.40;;;25.20;;
76867;SDS011;66168;45.478;11.060;2023-02-24T15:39:30;42.00;;;22.50;;
76867;SDS011;66168;45.478;11.060;2023-02-24T15:44:53;41.30;;;23.80;;
76867;SDS011;66168;45.478;11.060;2023-02-24T15:49:53;39.20;;;21.30;;
76867;SDS011;66168;45.478;11.060;2023-02-24T15:52:22;41.00;;;21.40;;
76867;SDS011;66168;45.478;11.060;2023-02-24T15:54:51;40.10;;;22.90;;
76867;SDS011;66168;45.478;11.060;2023-02-24T15:57:18;46.60;;;23.70;;
76867;SDS011;66168;45.478;11.060;2023-02-24T15:59:46;41.40;;;22.40;;
76867;SDS011;66168;45.478;11.060;2023-02-24T16:02:15;52.20;;;25.40;;
76867;SDS011;66168;45.478;11.060;2023-02-24T16:04:46;47.50;;;24.30;;
76867;SDS011;66168;45.478;11.060;2023-02-24T16:07:23;48.00;;;25.70;;
76867;SDS011;66168;45.478;11.060;2023-02-24T16:09:55;50.20;;;25.20;;
76867;SDS011;66168;45.478;11.060;2023-02-24T16:12:25;45.60;;;24.70;;
76867;SDS011;66168;45.478;11.060;2023-02-24T16:14:58;47.60;;;24.20;;
76867;SDS011;66168;45.478;11.060;2023-02-24T16:20:06;47.80;;;24.70;;
76867;SDS011;66168;45.478;11.060;2023-02-24T16:22:38;51.90;;;27.90;;
76867;SDS011;66168;45.478;11.060;2023-02-24T16:25:05;48.70;;;25.90;;
76867;SDS011;66168;45.478;11.060;2023-02-24T16:27:32;51.20;;;26.90;;
76867;SDS011;66168;45.478;11.060;2023-02-24T16:29:59;51.60;;;26.50;;
76867;SDS011;66168;45.478;11.060;2023-02-24T16:32:26;45.80;;;27.70;;
76867;SDS011;66168;45.478;11.060;2023-02-24T16:34:53;44.10;;;25.20;;
76867;SDS011;66168;45.478;11.060;2023-02-24T16:37:26;48.50;;;26.10;;
76867;SDS011;66168;45.478;11.060;2023-02-24T16:39:54;46.00;;;24.30;;
76867;SDS011;66168;45.478;11.060;2023-02-24T16:42:21;49.00;;;25.30;;
76867;SDS011;66168;45.478;11.060;2023-02-24T16:44:56;49.00;;;24.90;;
76867;SDS011;66168;45.478;11.060;2023-02-24T16:47:23;45.70;;;24.40;;
76867;SDS011;66168;45.478;11.060;2023-02-24T16:49:50;43.90;;;24.20;;
76867;SDS011;66168;45.478;11.060;2023-02-24T16:52:23;41.40;;;23.10;;
76867;SDS011;66168;45.478;11.060;2023-02-24T16:54:50;46.90;;;25.90;;
76867;SDS011;66168;45.478;11.060;2023-02-24T16:57:17;45.70;;;25.10;;
76867;SDS011;66168;45.478;11.060;2023-02-24T16:59:43;44.80;;;24.30;;
76867;SDS011;66168;45.478;11.060;2023-02-24T17:02:14;43.10;;;24.10;;
76867;SDS011;66168;45.478;11.060;2023-02-24T17:04:44;49.60;;;24.80;;
76867;SDS011;66168;45.478;11.060;2023-02-24T17:07:11;45.20;;;23.30;;
76867;SDS011;66168;45.478;11.060;2023-02-24T17:09:39;47.40;;;24.80;;
76867;SDS011;66168;45.478;11.060;2023-02-24T17:12:08;51.90;;;25.90;;
76867;SDS011;66168;45.478;11.060;2023-02-24T17:14:38;48.60;;;24.90;;